Search for airport 
image banner adimage banner adimage banner ad
image banner ad

KTNU - Newton Muni-Earl Johnson Field

Located in Newton, United States

ICAO - TNU, IATA -

Data provided by Airmate  

General information

Coordinates: N41°40'28" W93°1'18"
Elevation is 953 feet MSL.
Magnetic variation is 00° East
View others Airports in Iowa

Operational data

Special qualification required
Current time UTC:
Current local time:
Weather
METAR: KTNU 150955Z AUTO 03006KT 10SM CLR 18/10 A3008 RMK A01
View NOTAMs / SUP AIP / TFR affecting this airport [VIEW]
Communications frequencies: [VIEW]

Runways:

RWY identifierQFULength (ft)Width (ft)SurfaceLDA (ft)
14141°5600100ASPH
32321°5600100ASPH

Airport contact information

Address: Newton United States

Other aviation service providers

Flight schools

Johnson Aviation, Inc.

Johnson Aviation, Inc.

Satellite view of KTNU